Hattiesburg Laurel Regional Airport
KPIB : rendu visible

Aérodrome :











RETROUVEZ-NOUS SUR...

 
LOGIN :

S'inscrire | Disclaimer

   EN    FR    IT 

 









Légende :    VFR   VFR Marginal   IFR   IFR Intensif   IFR Très Intensif
Visi : 
Plafond : 
>= 8 km
>= 3000ft
5 à 8 km
1000 à 3000 ft
1500m à 5 km
500 à 1000 ft
800 à 1500m
200 à 500 ft
< 800m
< 200 ft
Symboles :   Orages  Brouillard  Fortes neiges  Fortes précipitations  Vent > 20 kt






- Altitude de l'aérodrome : 298 ft
- Code IATA : PIB


KPIB - Hattiesburg Laurel Regional

DERNIER METAR :
  • 030919Z AUTO 00000KT 9SM SCT001 BKN075 21/21 A2997 RMK AO2 PNO $

METARs EXPIRÉS :
  • 030903Z AUTO 00000KT 3SM BR BKN001 21/21 A2997 RMK AO2 PNO $
  • 030856Z AUTO 00000KT 1 1/2SM BR OVC001 21/21 A2997 RMK AO2 SLP147 6//// T02110211 58005 PNO $
  • 030825Z AUTO 00000KT 1 1/4SM BR OVC001 21/21 A2997 RMK AO2 PNO $
  • 030810Z AUTO 00000KT 1SM BR OVC001 22/22 A2998 RMK AO2 RVRNO PNO $
  • 030756Z AUTO 00000KT 1 1/4SM BR OVC001 22/22 A2998 RMK AO2 SLP152 T02170217 PNO $
  • 030739Z AUTO 00000KT 6SM BR SCT001 BKN060 OVC095 22/22 A2999 RMK AO2 PNO $
  • 030707Z AUTO 00000KT 6SM BR BKN090 21/21 A2999 RMK AO2 PNO $
  • 030656Z AUTO 00000KT 2 1/2SM BR SCT095 21/21 A2999 RMK AO2 SLP154 T02110211 PNO $

TAF KPIB
Valide du 03 à 09h jusqu'au 04 à 06h UTC


030906Z 0309/0406 00000KT 1 1/2SM BR OVC001
FM031330 VRB03KT P6SM VCSH SCT015 BKN025
FM031800 31004KT P6SM VCTS BKN040CB BKN060
FM040100 00000KT P6SM VCSH SCT050
FIR KZHU / Amérique du Nord



MET'MAP, la Météo Aéronautique d'un coup d'oeil ! - Copyright ORBIFLY Décembre 2007 - Disclaimer

ORBIFLY MET'MAP TEAM :

Programmation & Développement : Alexandra Zaïnal
Sur une idée originale de : Baudouin d'Aumeries
Assistance à la programmation : Marc-Olivier Méhu
Soutien technique & logistique : Manuel Goepfert

Contact : metmap@orbifly.com




SOURCES & CREDITS :

   NOAA       Earth
Advisory